Terminal Aerodrome Forecast
Issued by NWS

Home | Current Version | Previous Version | Text Only | Print | Product List | Glossary On
Versions: 1 2 3 4 5 6 7 8 9 10 11 12 13 14 15 16 17 18 19 20 21 22 23 24 25 26 27 28 29 30 31 32 33 34 35 36 37 38 39 40 41 42 43 44 45 46 47 48
000
FTUS43 KDMX 272340
TAFFOD
TAF
KFOD 272340Z 2800/2824 12008KT P6SM SCT050 SCT080
     FM280300 15010KT P6SM VCSH BKN050 OVC080
     FM280900 15013KT 4SM -SHRA BR SCT020 OVC030
     FM281200 11008KT 2SM -TSRA BR BKN020CB
     FM281600 11008KT 4SM SHRA BR OVC015
     FM282100 06008KT P6SM VCSH OVC025=

USA.gov is the U.S. government's official web portal to all federal, state and local government web resources and services.